Accueil
METAR-TAF:

METAR-TAF

Aéroports :

Aéroport international de Cambridge

Cambridge, Angleterre

latitude: 52-12N, longitude: 000-11E, altitude: 15 m

Observation

Le bulletin a été fait il y a 59 minutes, à 17:20 UTC
Vent 1 kt de sud
Température 3°C
Humidité 100%
Pression 1021 hPa
Visibilité: 0500 m
brouillard

METAR: EGSC 261720Z 19001KT 9000 0500NE R23/0375D FG NSC 03/03 Q1021

Heure: 18:19 (18:19 UTC)

Prévision

Le bulletin a été fait il y a 1 heure et 45 minutes, à 16:34 UTC
Prévision valable du 26 à 16 UTC au 26 à 18 UTC
Vent 4 kt de direction variable
Visibilité: 7000 m
Quelques nuages à une hauteur de 3000 ft
Evoluant progressivement
du 26 à 16 UTC au 26 à 18 UTC
Visibilité: 0400 m
brouillard

TAF: EGSC 261634Z 2616/2618 VRB04KT 7000 FEW030 BECMG 2616/2618 0400 FG VV///

Observations et prévisions météorologiques de plus de 4000 aéroports (messages METAR et TAF).

Les stations disponibles sont représentées par des disques jaunes et rouges sur la carte.

Passer la souris dessus pour voir le nom de la station.

Cliquer dessus pour voir les observations et prévisions météorologiques.

Pour changer de carte: cliquez sur les boutons verts avec une croix noire pour zoomer, sur le bouton vert avec un tiret pour effectuer un zoom arrière, ou sur les flèches vertes pour les cartes adjacentes.


METAR-TAF: